Terminal Aerodrome Forecast
Issued by NWS Twin Cities, MN

Home | Current Version | Previous Version | Text Only | Print | Product List | Glossary Off
Versions: 1 2 3 4 5 6 7 8 9 10 11 12 13 14 15 16 17 18 19 20 21 22 23 24 25 26 27 28

882
FTUS43 KMPX 171454 AAB
TAFMSP
TAF AMD
KMSP 171454Z 1715/1818 31009KT P6SM SCT020 BKN200
      TEMPO 1716/1720 BKN020
     FM180100 VRB03KT P6SM FEW150
     FM180600 09003KT P6SM BKN110
     FM181400 11006KT P6SM VCSH SCT060 OVC100=

USA.gov is the U.S. government's official web portal to all federal, state and local government web resources and services.